sensor_id;sensor_type;location;lat;lon;timestamp;pressure;altitude;pressure_sealevel;temperature;humidity
14612;BME280;7392;52.078;11.650;2023-01-26T00:01:16;101733.28;;;-2.14;100.00
14612;BME280;7392;52.078;11.650;2023-01-26T00:03:45;101725.47;;;-2.14;100.00
14612;BME280;7392;52.078;11.650;2023-01-26T00:06:15;101726.50;;;-2.12;100.00
14612;BME280;7392;52.078;11.650;2023-01-26T00:08:44;101720.34;;;-2.12;100.00
14612;BME280;7392;52.078;11.650;2023-01-26T00:11:14;101729.16;;;-2.10;100.00
14612;BME280;7392;52.078;11.650;2023-01-26T00:13:42;101710.88;;;-2.12;100.00
14612;BME280;7392;52.078;11.650;2023-01-26T00:16:12;101710.16;;;-2.09;100.00
14612;BME280;7392;52.078;11.650;2023-01-26T00:18:41;101701.53;;;-2.08;100.00
14612;BME280;7392;52.078;11.650;2023-01-26T00:21:12;101704.16;;;-2.08;100.00
14612;BME280;7392;52.078;11.650;2023-01-26T00:23:40;101707.75;;;-2.06;100.00
14612;BME280;7392;52.078;11.650;2023-01-26T00:26:09;101699.94;;;-2.06;100.00
14612;BME280;7392;52.078;11.650;2023-01-26T00:28:39;101699.03;;;-2.07;100.00
14612;BME280;7392;52.078;11.650;2023-01-26T00:31:09;101699.84;;;-2.08;100.00
14612;BME280;7392;52.078;11.650;2023-01-26T00:33:39;101694.63;;;-2.08;100.00
14612;BME280;7392;52.078;11.650;2023-01-26T00:36:09;101692.03;;;-2.08;100.00
14612;BME280;7392;52.078;11.650;2023-01-26T00:38:38;101699.72;;;-2.09;100.00
14612;BME280;7392;52.078;11.650;2023-01-26T00:41:07;101692.03;;;-2.08;100.00
14612;BME280;7392;52.078;11.650;2023-01-26T00:43:34;101683.31;;;-2.08;100.00
14612;BME280;7392;52.078;11.650;2023-01-26T00:46:02;101685.09;;;-2.07;100.00
14612;BME280;7392;52.078;11.650;2023-01-26T00:48:30;101687.69;;;-2.07;100.00
14612;BME280;7392;52.078;11.650;2023-01-26T00:51:00;101687.69;;;-2.07;100.00
14612;BME280;7392;52.078;11.650;2023-01-26T00:53:27;101687.81;;;-2.05;100.00
14612;BME280;7392;52.078;11.650;2023-01-26T00:55:55;101681.69;;;-2.06;100.00
14612;BME280;7392;52.078;11.650;2023-01-26T00:58:23;101687.81;;;-2.05;100.00
14612;BME280;7392;52.078;11.650;2023-01-26T01:00:52;101683.50;;;-2.05;100.00
14612;BME280;7392;52.078;11.650;2023-01-26T01:03:19;101689.63;;;-2.04;100.00
14612;BME280;7392;52.078;11.650;2023-01-26T01:05:47;101684.41;;;-2.04;100.00
14612;BME280;7392;52.078;11.650;2023-01-26T01:08:16;101677.50;;;-2.04;100.00
14612;BME280;7392;52.078;11.650;2023-01-26T01:10:43;101679.31;;;-2.03;100.00
14612;BME280;7392;52.078;11.650;2023-01-26T01:13:11;101675.78;;;-2.03;100.00
14612;BME280;7392;52.078;11.650;2023-01-26T01:15:38;101674.88;;;-2.04;100.00
14612;BME280;7392;52.078;11.650;2023-01-26T01:18:06;101683.59;;;-2.03;100.00
14612;BME280;7392;52.078;11.650;2023-01-26T01:20:34;101682.69;;;-2.04;100.00
14612;BME280;7392;52.078;11.650;2023-01-26T01:23:01;101674.78;;;-2.05;100.00
14612;BME280;7392;52.078;11.650;2023-01-26T01:25:30;101660.78;;;-2.08;100.00
14612;BME280;7392;52.078;11.650;2023-01-26T01:28:00;101666.09;;;-2.06;100.00
14612;BME280;7392;52.078;11.650;2023-01-26T01:30:27;101661.66;;;-2.07;100.00
14612;BME280;7392;52.078;11.650;2023-01-26T01:32:55;101665.25;;;-2.05;100.00
14612;BME280;7392;52.078;11.650;2023-01-26T01:35:22;101661.75;;;-2.05;100.00
14612;BME280;7392;52.078;11.650;2023-01-26T01:37:50;101665.19;;;-2.07;100.00
14612;BME280;7392;52.078;11.650;2023-01-26T01:40:18;101662.59;;;-2.07;100.00
14612;BME280;7392;52.078;11.650;2023-01-26T01:42:47;101665.09;;;-2.08;100.00
14612;BME280;7392;52.078;11.650;2023-01-26T01:45:40;101653.75;;;-2.09;100.00
14612;BME280;7392;52.078;11.650;2023-01-26T01:48:14;101662.38;;;-2.10;100.00
14612;BME280;7392;52.078;11.650;2023-01-26T01:50:44;101663.19;;;-2.11;100.00
14612;BME280;7392;52.078;11.650;2023-01-26T01:53:17;101661.47;;;-2.10;100.00
14612;BME280;7392;52.078;11.650;2023-01-26T01:55:52;101658.06;;;-2.09;100.00
14612;BME280;7392;52.078;11.650;2023-01-26T01:58:22;101654.47;;;-2.11;100.00
14612;BME280;7392;52.078;11.650;2023-01-26T02:00:50;101649.97;;;-2.14;100.00
14612;BME280;7392;52.078;11.650;2023-01-26T02:03:18;101652.56;;;-2.14;100.00
14612;BME280;7392;52.078;11.650;2023-01-26T02:05:53;101649.06;;;-2.14;100.00
14612;BME280;7392;52.078;11.650;2023-01-26T02:08:25;101643.84;;;-2.14;100.00
14612;BME280;7392;52.078;11.650;2023-01-26T02:10:56;101640.38;;;-2.15;100.00
14612;BME280;7392;52.078;11.650;2023-01-26T02:13:27;101644.66;;;-2.15;100.00
14612;BME280;7392;52.078;11.650;2023-01-26T02:15:58;101631.72;;;-2.14;100.00
14612;BME280;7392;52.078;11.650;2023-01-26T02:18:26;101622.94;;;-2.16;100.00
14612;BME280;7392;52.078;11.650;2023-01-26T02:20:58;101620.31;;;-2.16;100.00
14612;BME280;7392;52.078;11.650;2023-01-26T02:23:37;101617.72;;;-2.16;100.00
14612;BME280;7392;52.078;11.650;2023-01-26T02:26:12;101615.22;;;-2.14;100.00
14612;BME280;7392;52.078;11.650;2023-01-26T02:28:41;101617.72;;;-2.16;100.00
14612;BME280;7392;52.078;11.650;2023-01-26T02:31:11;101609.91;;;-2.16;100.00
14612;BME280;7392;52.078;11.650;2023-01-26T02:33:41;101613.34;;;-2.17;100.00
14612;BME280;7392;52.078;11.650;2023-01-26T02:36:16;101598.59;;;-2.16;100.00
14612;BME280;7392;52.078;11.650;2023-01-26T02:38:50;101598.59;;;-2.16;100.00
14612;BME280;7392;52.078;11.650;2023-01-26T02:41:19;101598.72;;;-2.15;100.00
14612;BME280;7392;52.078;11.650;2023-01-26T02:44:03;101597.88;;;-2.14;100.00
14612;BME280;7392;52.078;11.650;2023-01-26T02:46:31;101597.09;;;-2.13;100.00
14612;BME280;7392;52.078;11.650;2023-01-26T02:48:59;101592.00;;;-2.11;100.00
14612;BME280;7392;52.078;11.650;2023-01-26T02:51:45;101583.34;;;-2.10;100.00
14612;BME280;7392;52.078;11.650;2023-01-26T02:54:13;101578.06;;;-2.12;100.00
14612;BME280;7392;52.078;11.650;2023-01-26T02:57:03;101576.38;;;-2.11;100.00
14612;BME280;7392;52.078;11.650;2023-01-26T02:59:30;101576.38;;;-2.11;100.00
14612;BME280;7392;52.078;11.650;2023-01-26T03:01:57;101580.84;;;-2.09;100.00
14612;BME280;7392;52.078;11.650;2023-01-26T03:04:25;101579.06;;;-2.10;100.00
14612;BME280;7392;52.078;11.650;2023-01-26T03:06:53;101572.03;;;-2.11;100.00
14612;BME280;7392;52.078;11.650;2023-01-26T03:09:21;101569.63;;;-2.08;100.00
14612;BME280;7392;52.078;11.650;2023-01-26T03:11:48;101568.66;;;-2.10;100.00
14612;BME280;7392;52.078;11.650;2023-01-26T03:14:18;101567.81;;;-2.09;100.00
14612;BME280;7392;52.078;11.650;2023-01-26T03:16:48;101563.53;;;-2.08;100.00
14612;BME280;7392;52.078;11.650;2023-01-26T03:19:15;101557.41;;;-2.09;100.00
14612;BME280;7392;52.078;11.650;2023-01-26T03:22:08;101555.81;;;-2.07;100.00
14612;BME280;7392;52.078;11.650;2023-01-26T03:24:53;101554.03;;;-2.08;100.00
14612;BME280;7392;52.078;11.650;2023-01-26T03:27:41;101552.19;;;-2.09;100.00
14612;BME280;7392;52.078;11.650;2023-01-26T03:30:14;101548.63;;;-2.11;100.00
14612;BME280;7392;52.078;11.650;2023-01-26T03:32:44;101545.13;;;-2.11;100.00
14612;BME280;7392;52.078;11.650;2023-01-26T03:35:14;101548.50;;;-2.12;100.00
14612;BME280;7392;52.078;11.650;2023-01-26T03:37:48;101552.03;;;-2.12;100.00
14612;BME280;7392;52.078;11.650;2023-01-26T03:40:35;101552.84;;;-2.13;100.00
14612;BME280;7392;52.078;11.650;2023-01-26T03:43:21;101545.91;;;-2.12;100.00
14612;BME280;7392;52.078;11.650;2023-01-26T03:46:07;101543.31;;;-2.12;100.00
14612;BME280;7392;52.078;11.650;2023-01-26T03:48:53;101546.75;;;-2.13;100.00
14612;BME280;7392;52.078;11.650;2023-01-26T03:51:38;101550.13;;;-2.14;100.00
14612;BME280;7392;52.078;11.650;2023-01-26T03:54:24;101544.94;;;-2.14;100.00
14612;BME280;7392;52.078;11.650;2023-01-26T03:57:09;101550.13;;;-2.14;100.00
14612;BME280;7392;52.078;11.650;2023-01-26T03:59:37;101555.34;;;-2.14;100.00
14612;BME280;7392;52.078;11.650;2023-01-26T04:02:10;101545.81;;;-2.14;100.00
14612;BME280;7392;52.078;11.650;2023-01-26T04:04:57;101537.03;;;-2.16;100.00
14612;BME280;7392;52.078;11.650;2023-01-26T04:07:46;101546.53;;;-2.16;100.00
14612;BME280;7392;52.078;11.650;2023-01-26T04:10:31;101545.72;;;-2.15;100.00
14612;BME280;7392;52.078;11.650;2023-01-26T04:13:01;101549.25;;;-2.15;100.00
14612;BME280;7392;52.078;11.650;2023-01-26T04:15:52;101556.94;;;-2.16;100.00
14612;BME280;7392;52.078;11.650;2023-01-26T04:18:38;101554.44;;;-2.15;100.00
14612;BME280;7392;52.078;11.650;2023-01-26T04:21:24;101546.63;;;-2.15;100.00
14612;BME280;7392;52.078;11.650;2023-01-26T04:23:56;101539.63;;;-2.16;100.00
14612;BME280;7392;52.078;11.650;2023-01-26T04:26:25;101529.09;;;-2.17;100.00
14612;BME280;7392;52.078;11.650;2023-01-26T04:29:01;101539.63;;;-2.16;100.00
14612;BME280;7392;52.078;11.650;2023-01-26T04:31:29;101546.63;;;-2.15;100.00
14612;BME280;7392;52.078;11.650;2023-01-26T04:33:59;101538.72;;;-2.16;100.00
14612;BME280;7392;52.078;11.650;2023-01-26T04:36:27;101541.22;;;-2.18;100.00
14612;BME280;7392;52.078;11.650;2023-01-26T04:38:55;101546.25;;;-2.21;100.00
14612;BME280;7392;52.078;11.650;2023-01-26T04:41:23;101545.25;;;-2.23;100.00
14612;BME280;7392;52.078;11.650;2023-01-26T04:43:57;101540.06;;;-2.23;100.00
14612;BME280;7392;52.078;11.650;2023-01-26T04:46:25;101534.06;;;-2.22;100.00
14612;BME280;7392;52.078;11.650;2023-01-26T04:48:53;101540.94;;;-2.22;100.00
14612;BME280;7392;52.078;11.650;2023-01-26T04:51:23;101540.84;;;-2.24;100.00
14612;BME280;7392;52.078;11.650;2023-01-26T04:53:52;101546.97;;;-2.23;100.00
14612;BME280;7392;52.078;11.650;2023-01-26T04:56:23;101546.78;;;-2.27;100.00
14612;BME280;7392;52.078;11.650;2023-01-26T04:58:52;101542.34;;;-2.28;100.00
14612;BME280;7392;52.078;11.650;2023-01-26T05:01:21;101541.38;;;-2.30;100.00
14612;BME280;7392;52.078;11.650;2023-01-26T05:03:49;101544.75;;;-2.31;100.00
14612;BME280;7392;52.078;11.650;2023-01-26T05:06:17;101544.75;;;-2.31;100.00
14612;BME280;7392;52.078;11.650;2023-01-26T05:08:48;101543.09;;;-2.30;100.00
14612;BME280;7392;52.078;11.650;2023-01-26T05:11:16;101541.38;;;-2.30;100.00
14612;BME280;7392;52.078;11.650;2023-01-26T05:13:53;101542.09;;;-2.32;100.00
14612;BME280;7392;52.078;11.650;2023-01-26T05:16:33;101535.06;;;-2.33;100.00
14612;BME280;7392;52.078;11.650;2023-01-26T05:19:05;101533.25;;;-2.34;100.00
14612;BME280;7392;52.078;11.650;2023-01-26T05:21:40;101534.19;;;-2.34;100.00
14612;BME280;7392;52.078;11.650;2023-01-26T05:24:10;101536.78;;;-2.34;100.00
14612;BME280;7392;52.078;11.650;2023-01-26T05:27:01;101543.69;;;-2.34;100.00
14612;BME280;7392;52.078;11.650;2023-01-26T05:29:51;101538.38;;;-2.36;100.00
14612;BME280;7392;52.078;11.650;2023-01-26T05:32:20;101533.25;;;-2.34;100.00
14612;BME280;7392;52.078;11.650;2023-01-26T05:34:48;101543.69;;;-2.34;100.00
14612;BME280;7392;52.078;11.650;2023-01-26T05:37:16;101540.19;;;-2.35;100.00
14612;BME280;7392;52.078;11.650;2023-01-26T05:39:45;101538.38;;;-2.36;100.00
14612;BME280;7392;52.078;11.650;2023-01-26T05:42:13;101529.78;;;-2.35;100.00
14612;BME280;7392;52.078;11.650;2023-01-26T05:44:40;101534.19;;;-2.34;100.00
14612;BME280;7392;52.078;11.650;2023-01-26T05:47:11;101535.06;;;-2.33;100.00
14612;BME280;7392;52.078;11.650;2023-01-26T05:49:40;101547.31;;;-2.32;100.00
14612;BME280;7392;52.078;11.650;2023-01-26T05:52:16;101545.50;;;-2.33;100.00
14612;BME280;7392;52.078;11.650;2023-01-26T05:54:46;101543.69;;;-2.34;100.00
14612;BME280;7392;52.078;11.650;2023-01-26T05:57:14;101549.72;;;-2.35;100.00
14612;BME280;7392;52.078;11.650;2023-01-26T05:59:47;101540.19;;;-2.35;100.00
14612;BME280;7392;52.078;11.650;2023-01-26T06:02:16;101542.69;;;-2.36;100.00
14612;BME280;7392;52.078;11.650;2023-01-26T06:04:44;101533.16;;;-2.36;100.00
14612;BME280;7392;52.078;11.650;2023-01-26T06:07:12;101546.13;;;-2.37;100.00
14612;BME280;7392;52.078;11.650;2023-01-26T06:09:46;101547.69;;;-2.39;100.00
14612;BME280;7392;52.078;11.650;2023-01-26T06:12:21;101550.19;;;-2.41;100.00
14612;BME280;7392;52.078;11.650;2023-01-26T06:14:54;101542.31;;;-2.42;100.00
14612;BME280;7392;52.078;11.650;2023-01-26T06:17:24;101548.31;;;-2.43;100.00
14612;BME280;7392;52.078;11.650;2023-01-26T06:19:56;101550.13;;;-2.42;100.00
14612;BME280;7392;52.078;11.650;2023-01-26T06:22:24;101554.31;;;-2.45;100.00
14612;BME280;7392;52.078;11.650;2023-01-26T06:24:53;101556.81;;;-2.46;100.00
14612;BME280;7392;52.078;11.650;2023-01-26T06:27:21;101547.22;;;-2.47;100.00
14612;BME280;7392;52.078;11.650;2023-01-26T06:29:50;101564.56;;;-2.48;100.00
14612;BME280;7392;52.078;11.650;2023-01-26T06:32:18;101560.25;;;-2.47;100.00
14612;BME280;7392;52.078;11.650;2023-01-26T06:34:50;101562.00;;;-2.46;100.00
14612;BME280;7392;52.078;11.650;2023-01-26T06:37:20;101562.13;;;-2.45;100.00
14612;BME280;7392;52.078;11.650;2023-01-26T06:39:49;101564.72;;;-2.45;100.00
14612;BME280;7392;52.078;11.650;2023-01-26T06:42:18;101554.41;;;-2.43;100.00
14612;BME280;7392;52.078;11.650;2023-01-26T06:44:46;101559.63;;;-2.43;100.00
14612;BME280;7392;52.078;11.650;2023-01-26T06:47:15;101559.72;;;-2.41;100.00
14612;BME280;7392;52.078;11.650;2023-01-26T06:49:43;101562.22;;;-2.43;100.00
14612;BME280;7392;52.078;11.650;2023-01-26T06:52:21;101555.22;;;-2.44;100.00
14612;BME280;7392;52.078;11.650;2023-01-26T06:54:51;101549.94;;;-2.46;100.00
14612;BME280;7392;52.078;11.650;2023-01-26T06:57:25;101564.72;;;-2.45;100.00
14612;BME280;7392;52.078;11.650;2023-01-26T07:00:13;101569.94;;;-2.45;100.00
14612;BME280;7392;52.078;11.650;2023-01-26T07:03:11;101567.22;;;-2.46;100.00
14612;BME280;7392;52.078;11.650;2023-01-26T07:05:39;101560.34;;;-2.46;100.00
14612;BME280;7392;52.078;11.650;2023-01-26T07:08:07;101554.31;;;-2.45;100.00
14612;BME280;7392;52.078;11.650;2023-01-26T07:10:35;101556.81;;;-2.46;100.00
14612;BME280;7392;52.078;11.650;2023-01-26T07:13:04;101557.63;;;-2.47;100.00
14612;BME280;7392;52.078;11.650;2023-01-26T07:15:32;101562.94;;;-2.46;100.00
14612;BME280;7392;52.078;11.650;2023-01-26T07:18:00;101570.75;;;-2.46;100.00
14612;BME280;7392;52.078;11.650;2023-01-26T07:20:27;101562.94;;;-2.46;100.00
14612;BME280;7392;52.078;11.650;2023-01-26T07:22:55;101557.63;;;-2.47;100.00
14612;BME280;7392;52.078;11.650;2023-01-26T07:25:24;101557.72;;;-2.46;100.00
14612;BME280;7392;52.078;11.650;2023-01-26T07:27:54;101566.22;;;-2.48;100.00
14612;BME280;7392;52.078;11.650;2023-01-26T07:30:24;101565.34;;;-2.49;100.00
14612;BME280;7392;52.078;11.650;2023-01-26T07:32:52;101576.53;;;-2.50;100.00
14612;BME280;7392;52.078;11.650;2023-01-26T07:35:19;101570.44;;;-2.50;100.00
14612;BME280;7392;52.078;11.650;2023-01-26T07:37:47;101564.25;;;-2.52;100.00
14612;BME280;7392;52.078;11.650;2023-01-26T07:40:14;101568.56;;;-2.53;100.00
14612;BME280;7392;52.078;11.650;2023-01-26T07:42:42;101572.84;;;-2.53;100.00
14612;BME280;7392;52.078;11.650;2023-01-26T07:45:43;101577.94;;;-2.55;100.00
14612;BME280;7392;52.078;11.650;2023-01-26T07:48:11;101575.25;;;-2.56;100.00
14612;BME280;7392;52.078;11.650;2023-01-26T07:50:39;101575.06;;;-2.59;100.00
14612;BME280;7392;52.078;11.650;2023-01-26T07:53:07;101564.56;;;-2.61;100.00
14612;BME280;7392;52.078;11.650;2023-01-26T07:55:38;101568.06;;;-2.60;100.00
14612;BME280;7392;52.078;11.650;2023-01-26T07:58:05;101582.88;;;-2.59;100.00
14612;BME280;7392;52.078;11.650;2023-01-26T08:00:33;101578.47;;;-2.60;100.00
14612;BME280;7392;52.078;11.650;2023-01-26T08:03:02;101575.75;;;-2.62;100.00
14612;BME280;7392;52.078;11.650;2023-01-26T08:05:30;101575.66;;;-2.64;100.00
14612;BME280;7392;52.078;11.650;2023-01-26T08:07:58;101584.38;;;-2.63;100.00
14612;BME280;7392;52.078;11.650;2023-01-26T08:10:25;101582.69;;;-2.63;100.00
14612;BME280;7392;52.078;11.650;2023-01-26T08:12:57;101580.06;;;-2.63;100.00
14612;BME280;7392;52.078;11.650;2023-01-26T08:15:25;101579.88;;;-2.66;100.00
14612;BME280;7392;52.078;11.650;2023-01-26T08:17:53;101584.28;;;-2.65;100.00
14612;BME280;7392;52.078;11.650;2023-01-26T08:20:22;101591.88;;;-2.68;100.00
14612;BME280;7392;52.078;11.650;2023-01-26T08:22:50;101585.75;;;-2.68;100.00
14612;BME280;7392;52.078;11.650;2023-01-26T08:25:17;101587.56;;;-2.67;100.00
14612;BME280;7392;52.078;11.650;2023-01-26T08:27:45;101588.47;;;-2.67;100.00
14612;BME280;7392;52.078;11.650;2023-01-26T08:30:13;101585.06;;;-2.66;100.00
14612;BME280;7392;52.078;11.650;2023-01-26T08:32:41;101585.75;;;-2.68;100.00
14612;BME280;7392;52.078;11.650;2023-01-26T08:35:09;101584.09;;;-2.68;100.00
14612;BME280;7392;52.078;11.650;2023-01-26T08:37:37;101581.28;;;-2.71;100.00
14612;BME280;7392;52.078;11.650;2023-01-26T08:40:06;101578.69;;;-2.71;100.00
14612;BME280;7392;52.078;11.650;2023-01-26T08:42:34;101583.78;;;-2.72;100.00
14612;BME280;7392;52.078;11.650;2023-01-26T08:45:02;101577.56;;;-2.74;100.00
14612;BME280;7392;52.078;11.650;2023-01-26T08:47:30;101577.47;;;-2.76;100.00
14612;BME280;7392;52.078;11.650;2023-01-26T08:49:57;101576.47;;;-2.78;100.00
14612;BME280;7392;52.078;11.650;2023-01-26T08:52:25;101577.16;;;-2.80;100.00
14612;BME280;7392;52.078;11.650;2023-01-26T08:54:54;101577.06;;;-2.82;100.00
14612;BME280;7392;52.078;11.650;2023-01-26T08:57:22;101572.69;;;-2.83;100.00
14612;BME280;7392;52.078;11.650;2023-01-26T08:59:49;101578.69;;;-2.84;100.00
14612;BME280;7392;52.078;11.650;2023-01-26T09:02:18;101586.59;;;-2.83;100.00
14612;BME280;7392;52.078;11.650;2023-01-26T09:04:46;101575.28;;;-2.83;100.00
14612;BME280;7392;52.078;11.650;2023-01-26T09:07:13;101569.16;;;-2.84;100.00
14612;BME280;7392;52.078;11.650;2023-01-26T09:09:41;101578.00;;;-2.82;100.00
14612;BME280;7392;52.078;11.650;2023-01-26T09:12:10;101568.59;;;-2.79;100.00
14612;BME280;7392;52.078;11.650;2023-01-26T09:14:37;101569.47;;;-2.79;100.00
14612;BME280;7392;52.078;11.650;2023-01-26T09:17:06;101572.16;;;-2.77;100.00
14612;BME280;7392;52.078;11.650;2023-01-26T09:19:34;101566.09;;;-2.78;100.00
14612;BME280;7392;52.078;11.650;2023-01-26T09:22:01;101570.34;;;-2.78;100.00
14612;BME280;7392;52.078;11.650;2023-01-26T09:24:29;101570.34;;;-2.78;100.00
14612;BME280;7392;52.078;11.650;2023-01-26T09:26:56;101578.47;;;-2.74;100.00
14612;BME280;7392;52.078;11.650;2023-01-26T09:29:25;101582.69;;;-2.76;100.00
14612;BME280;7392;52.078;11.650;2023-01-26T09:31:52;101575.75;;;-2.75;100.00
14612;BME280;7392;52.078;11.650;2023-01-26T09:34:20;101581.28;;;-2.71;100.00
14612;BME280;7392;52.078;11.650;2023-01-26T09:36:50;101572.75;;;-2.68;100.00
14612;BME280;7392;52.078;11.650;2023-01-26T09:39:18;101581.59;;;-2.66;100.00
14612;BME280;7392;52.078;11.650;2023-01-26T09:41:54;101584.09;;;-2.68;100.00
14612;BME280;7392;52.078;11.650;2023-01-26T09:44:27;101579.66;;;-2.69;100.00
14612;BME280;7392;52.078;11.650;2023-01-26T09:47:03;101594.59;;;-2.66;100.00
14612;BME280;7392;52.078;11.650;2023-01-26T09:49:42;101578.25;;;-2.64;100.00
14612;BME280;7392;52.078;11.650;2023-01-26T09:52:17;101577.38;;;-2.64;100.00
14612;BME280;7392;52.078;11.650;2023-01-26T09:54:49;101576.66;;;-2.61;100.00
14612;BME280;7392;52.078;11.650;2023-01-26T09:57:20;101575.06;;;-2.59;100.00
14612;BME280;7392;52.078;11.650;2023-01-26T09:59:56;101578.78;;;-2.56;100.00
14612;BME280;7392;52.078;11.650;2023-01-26T10:02:38;101582.38;;;-2.54;100.00
14612;BME280;7392;52.078;11.650;2023-01-26T10:05:14;101574.66;;;-2.52;100.00
14612;BME280;7392;52.078;11.650;2023-01-26T10:07:43;101573.03;;;-2.50;100.00
14612;BME280;7392;52.078;11.650;2023-01-26T10:10:18;101568.84;;;-2.48;100.00
14612;BME280;7392;52.078;11.650;2023-01-26T10:12:48;101574.03;;;-2.48;100.00
14612;BME280;7392;52.078;11.650;2023-01-26T10:15:28;101574.97;;;-2.48;100.00
14612;BME280;7392;52.078;11.650;2023-01-26T10:17:59;101574.25;;;-2.45;100.00
14612;BME280;7392;52.078;11.650;2023-01-26T10:20:33;101564.81;;;-2.43;100.00
14612;BME280;7392;52.078;11.650;2023-01-26T10:23:05;101565.81;;;-2.41;100.00
14612;BME280;7392;52.078;11.650;2023-01-26T10:25:35;101558.19;;;-2.38;100.00
14612;BME280;7392;52.078;11.650;2023-01-26T10:28:11;101563.72;;;-2.33;100.00
14612;BME280;7392;52.078;11.650;2023-01-26T10:30:42;101564.00;;;-2.29;100.00
14612;BME280;7392;52.078;11.650;2023-01-26T10:33:14;101550.25;;;-2.26;100.00
14612;BME280;7392;52.078;11.650;2023-01-26T10:35:42;101546.25;;;-2.21;100.00
14612;BME280;7392;52.078;11.650;2023-01-26T10:38:39;101545.56;;;-2.18;100.00
14612;BME280;7392;52.078;11.650;2023-01-26T10:41:22;101543.06;;;-2.17;100.00
14612;BME280;7392;52.078;11.650;2023-01-26T10:43:51;101536.31;;;-2.13;100.00
14612;BME280;7392;52.078;11.650;2023-01-26T10:46:29;101537.31;;;-2.11;100.00
14612;BME280;7392;52.078;11.650;2023-01-26T10:48:58;101535.78;;;-2.08;100.00
14612;BME280;7392;52.078;11.650;2023-01-26T10:51:29;101526.25;;;-2.07;100.00
14612;BME280;7392;52.078;11.650;2023-01-26T10:54:20;101520.28;;;-2.06;100.00
14612;BME280;7392;52.078;11.650;2023-01-26T10:56:51;101519.53;;;-2.03;100.00
14612;BME280;7392;52.078;11.650;2023-01-26T10:59:26;101519.63;;;-2.02;100.00
14612;BME280;7392;52.078;11.650;2023-01-26T11:01:59;101511.91;;;-2.00;100.00
14612;BME280;7392;52.078;11.650;2023-01-26T11:04:27;101513.81;;;-1.98;100.00
14612;BME280;7392;52.078;11.650;2023-01-26T11:06:55;101515.69;;;-1.95;100.00
14612;BME280;7392;52.078;11.650;2023-01-26T11:09:26;101516.69;;;-1.93;100.00
14612;BME280;7392;52.078;11.650;2023-01-26T11:11:59;101521.19;;;-1.91;100.00
14612;BME280;7392;52.078;11.650;2023-01-26T11:14:28;101517.81;;;-1.90;100.00
14612;BME280;7392;52.078;11.650;2023-01-26T11:17:05;101514.47;;;-1.87;100.00
14612;BME280;7392;52.078;11.650;2023-01-26T11:20:02;101517.34;;;-1.82;100.00
14612;BME280;7392;52.078;11.650;2023-01-26T11:22:40;101513.13;;;-1.80;100.00
14612;BME280;7392;52.078;11.650;2023-01-26T11:25:19;101501.91;;;-1.79;100.00
14612;BME280;7392;52.078;11.650;2023-01-26T11:27:55;101503.00;;;-1.76;100.00
14612;BME280;7392;52.078;11.650;2023-01-26T11:30:43;101504.78;;;-1.75;100.00
14612;BME280;7392;52.078;11.650;2023-01-26T11:33:21;101504.16;;;-1.71;100.00
14612;BME280;7392;52.078;11.650;2023-01-26T11:35:56;101499.94;;;-1.68;100.00
14612;BME280;7392;52.078;11.650;2023-01-26T11:38:34;101491.38;;;-1.66;100.00
14612;BME280;7392;52.078;11.650;2023-01-26T11:41:22;101493.19;;;-1.65;100.00
14612;BME280;7392;52.078;11.650;2023-01-26T11:44:10;101484.59;;;-1.64;100.00
14612;BME280;7392;52.078;11.650;2023-01-26T11:46:57;101485.47;;;-1.63;100.00
14612;BME280;7392;52.078;11.650;2023-01-26T11:49:43;101481.16;;;-1.63;100.00
14612;BME280;7392;52.078;11.650;2023-01-26T11:52:17;101468.13;;;-1.63;100.00
14612;BME280;7392;52.078;11.650;2023-01-26T11:54:59;101465.63;;;-1.61;100.00
14612;BME280;7392;52.078;11.650;2023-01-26T11:57:35;101463.91;;;-1.61;100.00
14612;BME280;7392;52.078;11.650;2023-01-26T12:00:13;101460.50;;;-1.60;100.00
14612;BME280;7392;52.078;11.650;2023-01-26T12:02:59;101460.59;;;-1.58;100.00
14612;BME280;7392;52.078;11.650;2023-01-26T12:05:35;101457.00;;;-1.60;100.00
14612;BME280;7392;52.078;11.650;2023-01-26T12:08:11;101457.16;;;-1.57;100.00
14612;BME280;7392;52.078;11.650;2023-01-26T12:10:47;101444.22;;;-1.56;100.00
14612;BME280;7392;52.078;11.650;2023-01-26T12:13:26;101447.66;;;-1.57;100.00
14612;BME280;7392;52.078;11.650;2023-01-26T12:16:00;101446.03;;;-1.55;100.00
14612;BME280;7392;52.078;11.650;2023-01-26T12:18:34;101439.09;;;-1.54;100.00
14612;BME280;7392;52.078;11.650;2023-01-26T12:21:27;101448.91;;;-1.50;100.00
14612;BME280;7392;52.078;11.650;2023-01-26T12:24:00;101443.78;;;-1.48;100.00
14612;BME280;7392;52.078;11.650;2023-01-26T12:26:32;101441.25;;;-1.47;100.00
14612;BME280;7392;52.078;11.650;2023-01-26T12:29:05;101428.31;;;-1.45;100.00
14612;BME280;7392;52.078;11.650;2023-01-26T12:31:44;101433.41;;;-1.47;100.00
14612;BME280;7392;52.078;11.650;2023-01-26T12:34:12;101435.13;;;-1.47;100.00
14612;BME280;7392;52.078;11.650;2023-01-26T12:36:47;101434.25;;;-1.48;100.00
14612;BME280;7392;52.078;11.650;2023-01-26T12:39:22;101430.81;;;-1.47;100.00
14612;BME280;7392;52.078;11.650;2023-01-26T12:42:08;101422.28;;;-1.44;100.00
14612;BME280;7392;52.078;11.650;2023-01-26T12:44:40;101425.88;;;-1.42;100.00
14612;BME280;7392;52.078;11.650;2023-01-26T12:47:13;101428.56;;;-1.41;100.00
14612;BME280;7392;52.078;11.650;2023-01-26T12:49:49;101429.47;;;-1.40;100.00
14612;BME280;7392;52.078;11.650;2023-01-26T12:52:25;101426.84;;;-1.40;100.00
14612;BME280;7392;52.078;11.650;2023-01-26T12:54:58;101421.63;;;-1.40;100.00
14612;BME280;7392;52.078;11.650;2023-01-26T12:57:33;101421.81;;;-1.37;100.00
14612;BME280;7392;52.078;11.650;2023-01-26T13:00:06;101418.41;;;-1.36;100.00
14612;BME280;7392;52.078;11.650;2023-01-26T13:02:35;101416.78;;;-1.34;100.00
14612;BME280;7392;52.078;11.650;2023-01-26T13:05:03;101420.47;;;-1.30;100.00
14612;BME280;7392;52.078;11.650;2023-01-26T13:07:36;101423.06;;;-1.30;100.00